Time;durP1;ratioP1;P1;durP2;ratioP2;P2;SDS_P1;SDS_P2;PMS_P1;PMS_P2;Temp;Humidity;BMP_temperature;BMP_pressure;BME280_temperature;BME280_humidity;BME280_pressure;Samples;Min_cycle;Max_cycle;Signal;HPM_P1;HPM_P2
2021/07/11 00:01:48;;;;;;;3.53;2.90;;;;;;;;;;4439464;28;20043;-62
2021/07/11 00:03:58;;;;;;;3.67;3.10;;;;;;;;;;4444508;28;20037;-62
2021/07/11 00:06:08;;;;;;;3.73;3.10;;;;;;;;;;4439742;28;20896;-61
2021/07/11 00:08:19;;;;;;;3.63;2.93;;;;;;;;;;4442751;28;20224;-61
2021/07/11 00:10:29;;;;;;;3.33;2.70;;;;;;;;;;4506092;28;20980;-62
2021/07/11 00:12:41;;;;;;;3.57;2.90;;;;;;;;;;4498575;28;20057;-61
2021/07/11 00:14:52;;;;;;;3.65;3.00;;;;;;;;;;4499411;28;20038;-61
2021/07/11 00:17:03;;;;;;;3.10;2.70;;;;;;;;;;4441357;28;20044;-62
2021/07/11 00:19:14;;;;;;;3.60;2.70;;;;;;;;;;4439675;28;20036;-62
2021/07/11 00:21:25;;;;;;;3.33;2.93;;;;;;;;;;4498367;28;20046;-62
2021/07/11 00:23:35;;;;;;;3.75;2.92;;;;;;;;;;4499959;28;20036;-61
2021/07/11 00:25:46;;;;;;;3.47;3.00;;;;;;;;;;4439725;28;20032;-61
2021/07/11 00:27:56;;;;;;;3.50;2.87;;;;;;;;;;4435348;28;20043;-62
2021/07/11 00:30:08;;;;;;;3.30;2.83;;;;;;;;;;4501080;28;20068;-61
2021/07/11 00:32:18;;;;;;;3.47;3.00;;;;;;;;;;4441423;28;20032;-61
2021/07/11 00:34:29;;;;;;;3.63;2.83;;;;;;;;;;4440050;28;20054;-62
2021/07/11 00:36:40;;;;;;;3.67;2.70;;;;;;;;;;4436845;28;20117;-61
2021/07/11 00:38:51;;;;;;;3.47;2.70;;;;;;;;;;4448178;28;20126;-61
2021/07/11 00:41:05;;;;;;;4.18;2.85;;;;;;;;;;4503664;28;20476;-62
2021/07/11 00:43:16;;;;;;;3.10;2.73;;;;;;;;;;4499870;28;20030;-61
2021/07/11 00:45:27;;;;;;;2.95;2.60;;;;;;;;;;4482862;28;20065;-61
2021/07/11 00:47:40;;;;;;;2.80;2.50;;;;;;;;;;4442592;28;20031;-62
2021/07/11 00:49:52;;;;;;;3.45;2.60;;;;;;;;;;4498296;28;20611;-62
2021/07/11 00:52:02;;;;;;;3.17;2.63;;;;;;;;;;4438503;28;20306;-61
2021/07/11 00:54:13;;;;;;;3.00;2.70;;;;;;;;;;4440114;28;20037;-61
2021/07/11 00:56:24;;;;;;;3.27;2.63;;;;;;;;;;4438398;28;20071;-62
2021/07/11 00:58:35;;;;;;;3.90;2.90;;;;;;;;;;4480452;28;20141;-61
2021/07/11 01:00:49;;;;;;;4.20;2.90;;;;;;;;;;4500771;28;20065;-62
2021/07/11 01:03:08;;;;;;;2.80;2.50;;;;;;;;;;4514948;28;20057;-61
2021/07/11 01:05:21;;;;;;;3.60;2.83;;;;;;;;;;4436099;28;20055;-61
2021/07/11 01:07:42;;;;;;;3.60;2.67;;;;;;;;;;4482229;28;20585;-61
2021/07/11 01:09:55;;;;;;;3.63;2.75;;;;;;;;;;4518098;28;20646;-62
2021/07/11 01:12:10;;;;;;;2.53;2.20;;;;;;;;;;4498954;28;20113;-62
2021/07/11 01:14:29;;;;;;;3.25;2.63;;;;;;;;;;4494806;28;20036;-61
2021/07/11 01:16:40;;;;;;;3.15;2.70;;;;;;;;;;4440823;28;20591;-61
2021/07/11 01:19:00;;;;;;;3.22;2.60;;;;;;;;;;4441067;28;20040;-62
2021/07/11 01:21:16;;;;;;;2.97;2.38;;;;;;;;;;4480741;28;20041;-61
2021/07/11 01:23:51;;;;;;;;;;;;;;;;;;4484377;28;20037;-62
2021/07/11 01:26:03;;;;;;;3.58;2.83;;;;;;;;;;4439310;28;20048;-62
2021/07/11 01:28:19;;;;;;;2.58;2.38;;;;;;;;;;4486713;28;20035;-61
2021/07/11 01:30:32;;;;;;;2.92;2.53;;;;;;;;;;4482219;28;20034;-61
2021/07/11 01:32:43;;;;;;;4.18;2.75;;;;;;;;;;4440547;28;20063;-61
2021/07/11 01:34:54;;;;;;;3.05;2.55;;;;;;;;;;4482664;28;20798;-61
2021/07/11 01:37:05;;;;;;;2.90;2.58;;;;;;;;;;4482611;28;20069;-61
2021/07/11 01:39:16;;;;;;;3.42;2.65;;;;;;;;;;4500213;28;20034;-61
2021/07/11 01:41:29;;;;;;;3.45;2.80;;;;;;;;;;4497891;28;20045;-61
2021/07/11 01:43:40;;;;;;;2.53;2.33;;;;;;;;;;4489622;28;20854;-63
2021/07/11 01:45:53;;;;;;;4.35;2.80;;;;;;;;;;4488067;28;20038;-61
2021/07/11 01:48:05;;;;;;;3.25;2.42;;;;;;;;;;4485059;28;20030;-61
2021/07/11 01:50:17;;;;;;;2.67;2.22;;;;;;;;;;4520358;28;20168;-62
2021/07/11 01:52:28;;;;;;;2.97;2.58;;;;;;;;;;4502262;28;20041;-62
2021/07/11 01:54:38;;;;;;;3.63;2.60;;;;;;;;;;4488505;28;20034;-61
2021/07/11 01:56:51;;;;;;;3.38;2.83;;;;;;;;;;4517081;28;20036;-61
2021/07/11 01:59:08;;;;;;;3.47;2.80;;;;;;;;;;4500820;28;20030;-61
2021/07/11 02:01:29;;;;;;;3.20;2.90;;;;;;;;;;4520023;28;20059;-62
2021/07/11 02:03:49;;;;;;;6.43;3.25;;;;;;;;;;4504177;28;20075;-61
2021/07/11 02:06:01;;;;;;;3.90;3.00;;;;;;;;;;4499507;28;20091;-61
2021/07/11 02:08:32;;;;;;;4.15;2.85;;;;;;;;;;4491075;28;20044;-62
2021/07/11 02:10:46;;;;;;;3.42;2.70;;;;;;;;;;4501484;28;20145;-62
2021/07/11 02:13:36;;;;;;;4.25;2.97;;;;;;;;;;4518620;28;20068;-61
2021/07/11 02:15:53;;;;;;;3.95;3.15;;;;;;;;;;4481484;28;21006;-62
2021/07/11 02:18:06;;;;;;;3.85;2.75;;;;;;;;;;4493323;28;20092;-61
2021/07/11 02:20:33;;;;;;;3.85;2.70;;;;;;;;;;4488338;28;20168;-61
2021/07/11 02:22:45;;;;;;;;;;;;;;;;;;4502262;28;20640;-62
2021/07/11 02:25:00;;;;;;;3.90;2.80;;;;;;;;;;4515044;28;19924;-61
2021/07/11 02:27:18;;;;;;;3.40;2.72;;;;;;;;;;4499389;28;21045;-62
2021/07/11 02:29:34;;;;;;;3.55;2.67;;;;;;;;;;4440475;28;20072;-61
2021/07/11 02:31:45;;;;;;;2.72;2.45;;;;;;;;;;4498346;28;20160;-62
2021/07/11 02:33:56;;;;;;;3.72;2.85;;;;;;;;;;4441107;28;20075;-62
2021/07/11 02:36:15;;;;;;;3.53;2.83;;;;;;;;;;4502343;28;20092;-61
2021/07/11 02:38:39;;;;;;;3.47;2.92;;;;;;;;;;4487179;28;20045;-61
2021/07/11 02:40:51;;;;;;;3.50;2.95;;;;;;;;;;4506136;28;20029;-61
2021/07/11 02:43:03;;;;;;;3.55;2.60;;;;;;;;;;4485951;28;20030;-62
2021/07/11 02:45:14;;;;;;;3.63;2.75;;;;;;;;;;4498790;28;20562;-61
2021/07/11 02:47:30;;;;;;;3.75;2.72;;;;;;;;;;4500263;28;20161;-61
2021/07/11 02:49:46;;;;;;;4.00;2.67;;;;;;;;;;4500022;28;20037;-61
2021/07/11 02:51:59;;;;;;;3.65;3.08;;;;;;;;;;4471902;28;20558;-61
2021/07/11 02:54:17;;;;;;;4.03;2.80;;;;;;;;;;4484991;28;20065;-62
2021/07/11 02:56:33;;;;;;;5.30;3.03;;;;;;;;;;4471285;28;20039;-61
2021/07/11 02:58:49;;;;;;;4.57;3.40;;;;;;;;;;4499154;28;20033;-61
2021/07/11 03:00:59;;;;;;;4.60;3.25;;;;;;;;;;4502227;28;20072;-61
2021/07/11 03:03:11;;;;;;;;;;;;;;;;;;4490127;28;20041;-61
2021/07/11 03:05:34;;;;;;;3.70;2.83;;;;;;;;;;4519238;28;19924;-61
2021/07/11 03:07:45;;;;;;;4.28;3.42;;;;;;;;;;4499194;28;21141;-61
2021/07/11 03:09:59;;;;;;;4.13;3.08;;;;;;;;;;4500398;28;20109;-61
2021/07/11 03:12:12;;;;;;;4.15;3.20;;;;;;;;;;4501439;28;20498;-61
2021/07/11 03:14:24;;;;;;;4.20;3.15;;;;;;;;;;4443360;28;20066;-62
2021/07/11 03:16:40;;;;;;;3.80;3.13;;;;;;;;;;4471023;28;20038;-62
2021/07/11 03:18:54;;;;;;;4.35;3.47;;;;;;;;;;4513688;28;20038;-61
2021/07/11 03:21:06;;;;;;;4.03;3.28;;;;;;;;;;4515877;28;20033;-61
2021/07/11 03:23:18;;;;;;;4.13;3.35;;;;;;;;;;4480443;28;20801;-61
2021/07/11 03:25:30;;;;;;;5.10;3.58;;;;;;;;;;4499336;28;20038;-61
2021/07/11 03:27:47;;;;;;;5.07;3.35;;;;;;;;;;4497638;28;20052;-61
2021/07/11 03:30:18;;;;;;;3.92;3.25;;;;;;;;;;4501049;28;20042;-61
2021/07/11 03:32:30;;;;;;;;;;;;;;;;;;4438713;28;20050;-61
2021/07/11 03:34:40;;;;;;;5.07;3.30;;;;;;;;;;4517058;28;19916;-61
2021/07/11 03:37:10;;;;;;;3.78;3.17;;;;;;;;;;4487375;28;20058;-61
2021/07/11 03:39:26;;;;;;;3.80;3.15;;;;;;;;;;4481511;28;20065;-61
2021/07/11 03:41:40;;;;;;;4.70;3.65;;;;;;;;;;4483543;28;20700;-61
2021/07/11 03:43:55;;;;;;;5.03;3.58;;;;;;;;;;4514643;28;20037;-62
2021/07/11 03:46:07;;;;;;;5.70;3.58;;;;;;;;;;4504729;28;20033;-62
2021/07/11 03:48:27;;;;;;;5.35;3.70;;;;;;;;;;4499527;28;20489;-62
2021/07/11 03:50:40;;;;;;;5.13;3.95;;;;;;;;;;4499386;28;20096;-61
2021/07/11 03:52:56;;;;;;;4.85;3.55;;;;;;;;;;4440732;28;20040;-61
2021/07/11 03:55:07;;;;;;;5.28;3.78;;;;;;;;;;4500688;28;20307;-61
2021/07/11 03:57:18;;;;;;;5.13;3.72;;;;;;;;;;4497987;28;20050;-61
2021/07/11 03:59:31;;;;;;;4.90;3.77;;;;;;;;;;4483589;28;20522;-61
2021/07/11 04:01:42;;;;;;;6.03;4.25;;;;;;;;;;4500826;28;20038;-62
2021/07/11 04:03:53;;;;;;;5.63;3.97;;;;;;;;;;4497878;28;20029;-61
2021/07/11 04:06:05;;;;;;;5.28;3.78;;;;;;;;;;4437700;28;20044;-61
2021/07/11 04:08:18;;;;;;;6.18;4.20;;;;;;;;;;4503138;28;20576;-62
2021/07/11 04:10:29;;;;;;;4.97;3.92;;;;;;;;;;4500475;28;20824;-61
2021/07/11 04:12:40;;;;;;;5.72;4.22;;;;;;;;;;4499189;28;20030;-61
2021/07/11 04:14:50;;;;;;;6.37;4.53;;;;;;;;;;4437995;28;20421;-61
2021/07/11 04:17:06;;;;;;;6.30;4.47;;;;;;;;;;4436985;28;20036;-61
2021/07/11 04:19:25;;;;;;;6.82;4.57;;;;;;;;;;4498787;28;21402;-61
2021/07/11 04:21:37;;;;;;;7.03;4.70;;;;;;;;;;4497555;28;20115;-61
2021/07/11 04:23:48;;;;;;;6.18;4.55;;;;;;;;;;4499699;28;20040;-61
2021/07/11 04:25:59;;;;;;;6.70;4.55;;;;;;;;;;4501183;28;20033;-61
2021/07/11 04:28:11;;;;;;;7.38;4.88;;;;;;;;;;4484117;28;20037;-61
2021/07/11 04:30:22;;;;;;;6.93;4.82;;;;;;;;;;4443641;28;20785;-61
2021/07/11 04:32:34;;;;;;;7.60;5.03;;;;;;;;;;4500112;28;20253;-62
2021/07/11 04:34:44;;;;;;;7.35;5.10;;;;;;;;;;4439131;28;20085;-62
2021/07/11 04:36:57;;;;;;;8.67;5.50;;;;;;;;;;4497726;28;20127;-61
2021/07/11 04:39:07;;;;;;;7.68;5.13;;;;;;;;;;4498906;28;20038;-61
2021/07/11 04:41:18;;;;;;;7.70;5.10;;;;;;;;;;4498147;28;20492;-61
2021/07/11 04:43:28;;;;;;;7.73;5.40;;;;;;;;;;4442987;28;20041;-61
2021/07/11 04:45:38;;;;;;;7.93;5.40;;;;;;;;;;4436687;28;20050;-62
2021/07/11 04:47:49;;;;;;;7.73;5.57;;;;;;;;;;4440431;28;20041;-61
2021/07/11 04:49:59;;;;;;;7.60;5.63;;;;;;;;;;4498248;28;20034;-61
2021/07/11 04:52:10;;;;;;;8.20;5.67;;;;;;;;;;4501490;28;20113;-61
2021/07/11 04:54:20;;;;;;;10.27;6.73;;;;;;;;;;4435360;28;20035;-61
2021/07/11 04:56:32;;;;;;;8.90;6.60;;;;;;;;;;4439425;28;20048;-62
2021/07/11 04:58:42;;;;;;;;;;;;;;;;;;4499302;28;20823;-61
2021/07/11 05:00:52;;;;;;;9.15;6.07;;;;;;;;;;4433161;28;19925;-61
2021/07/11 05:03:03;;;;;;;9.67;6.33;;;;;;;;;;4502516;28;20565;-62
2021/07/11 05:05:14;;;;;;;9.73;6.80;;;;;;;;;;4438587;28;20507;-61
2021/07/11 05:07:24;;;;;;;9.60;6.80;;;;;;;;;;4496738;28;20050;-62
2021/07/11 05:09:34;;;;;;;10.40;7.10;;;;;;;;;;4506011;28;20038;-61
2021/07/11 05:11:45;;;;;;;10.83;7.73;;;;;;;;;;4445994;28;20034;-61
2021/07/11 05:13:56;;;;;;;10.60;7.53;;;;;;;;;;4433202;28;20046;-61
2021/07/11 05:16:06;;;;;;;11.40;7.83;;;;;;;;;;4438486;28;20479;-61
2021/07/11 05:18:16;;;;;;;11.63;8.40;;;;;;;;;;4436993;28;20302;-61
2021/07/11 05:20:27;;;;;;;10.47;7.80;;;;;;;;;;4439708;28;20297;-61
2021/07/11 05:22:37;;;;;;;11.60;8.27;;;;;;;;;;4441137;28;20607;-62
2021/07/11 05:24:48;;;;;;;10.37;7.67;;;;;;;;;;4442477;28;20059;-61
2021/07/11 05:26:58;;;;;;;10.73;7.43;;;;;;;;;;4503071;28;20044;-61
2021/07/11 05:29:09;;;;;;;9.63;6.67;;;;;;;;;;4442601;28;20026;-61
2021/07/11 05:31:19;;;;;;;11.03;7.87;;;;;;;;;;4437930;28;20439;-61
2021/07/11 05:33:30;;;;;;;11.30;8.23;;;;;;;;;;4444804;28;20122;-61
2021/07/11 05:35:40;;;;;;;10.63;7.50;;;;;;;;;;4499578;28;20800;-61
2021/07/11 05:37:51;;;;;;;10.63;7.07;;;;;;;;;;4503546;28;20042;-62
2021/07/11 05:40:02;;;;;;;9.93;6.87;;;;;;;;;;4440576;28;20040;-61
2021/07/11 05:42:13;;;;;;;9.73;6.25;;;;;;;;;;4439736;28;20033;-62
2021/07/11 05:44:23;;;;;;;9.53;6.27;;;;;;;;;;4434813;28;20036;-61
2021/07/11 05:46:33;;;;;;;9.17;5.87;;;;;;;;;;4440386;28;20124;-61
2021/07/11 05:48:44;;;;;;;9.33;6.03;;;;;;;;;;4435061;28;20176;-61
2021/07/11 05:50:54;;;;;;;8.50;5.87;;;;;;;;;;4439437;28;20039;-61
2021/07/11 05:53:05;;;;;;;9.53;5.53;;;;;;;;;;4497472;28;20029;-61
2021/07/11 05:55:15;;;;;;;7.70;4.90;;;;;;;;;;4484377;28;20073;-61
2021/07/11 05:57:27;;;;;;;8.07;4.70;;;;;;;;;;4498716;28;20485;-61
2021/07/11 05:59:38;;;;;;;7.45;4.75;;;;;;;;;;4436359;28;20043;-61
2021/07/11 06:01:48;;;;;;;6.40;4.30;;;;;;;;;;4436656;28;20047;-60
2021/07/11 06:03:59;;;;;;;6.77;4.60;;;;;;;;;;4437969;28;20031;-61
2021/07/11 06:06:09;;;;;;;6.93;4.10;;;;;;;;;;4437043;28;20036;-62
2021/07/11 06:08:20;;;;;;;7.67;4.50;;;;;;;;;;4440851;28;20032;-60
2021/07/11 06:10:30;;;;;;;6.13;4.20;;;;;;;;;;4437513;28;20032;-60
2021/07/11 06:12:41;;;;;;;7.90;4.50;;;;;;;;;;4499303;28;20348;-61
2021/07/11 06:14:52;;;;;;;6.97;4.30;;;;;;;;;;4436387;28;20052;-60
2021/07/11 06:17:02;;;;;;;5.50;3.60;;;;;;;;;;4425299;28;20040;-61
2021/07/11 06:19:14;;;;;;;6.13;3.77;;;;;;;;;;4498846;28;20035;-61
2021/07/11 06:21:24;;;;;;;6.10;3.40;;;;;;;;;;4498500;28;20585;-61
2021/07/11 06:23:36;;;;;;;5.37;3.37;;;;;;;;;;4439549;28;20036;-61
2021/07/11 06:25:46;;;;;;;5.10;3.40;;;;;;;;;;4434540;28;20039;-61
2021/07/11 06:27:57;;;;;;;4.20;2.87;;;;;;;;;;4435544;28;20073;-61
2021/07/11 06:30:10;;;;;;;4.93;3.20;;;;;;;;;;4501910;28;20038;-61
2021/07/11 06:32:20;;;;;;;5.10;3.50;;;;;;;;;;4440834;28;20040;-61
2021/07/11 06:34:30;;;;;;;4.60;2.90;;;;;;;;;;4497861;28;20054;-61
2021/07/11 06:36:41;;;;;;;5.47;3.37;;;;;;;;;;4447327;28;20259;-61
2021/07/11 06:38:51;;;;;;;5.30;3.57;;;;;;;;;;4442722;28;20106;-61
2021/07/11 06:41:02;;;;;;;4.60;2.97;;;;;;;;;;4501939;28;20140;-61
2021/07/11 06:43:12;;;;;;;4.93;3.27;;;;;;;;;;4441577;28;20040;-61
2021/07/11 06:45:24;;;;;;;4.87;3.30;;;;;;;;;;4500373;28;20030;-61
2021/07/11 06:47:34;;;;;;;5.20;3.42;;;;;;;;;;4501302;28;20136;-61
2021/07/11 06:49:45;;;;;;;5.50;3.78;;;;;;;;;;4438107;28;20453;-61
2021/07/11 06:51:55;;;;;;;6.30;3.90;;;;;;;;;;4444856;28;20105;-61
2021/07/11 06:54:06;;;;;;;5.17;3.27;;;;;;;;;;4436895;28;20036;-61
2021/07/11 06:56:16;;;;;;;5.60;4.07;;;;;;;;;;4437912;28;20496;-61
2021/07/11 06:58:27;;;;;;;5.67;3.73;;;;;;;;;;4438627;28;20559;-61
2021/07/11 07:00:37;;;;;;;5.87;3.70;;;;;;;;;;4500632;28;20042;-61
2021/07/11 07:02:48;;;;;;;6.03;4.23;;;;;;;;;;4486130;28;20068;-61
2021/07/11 07:04:58;;;;;;;5.93;3.73;;;;;;;;;;4507586;28;20499;-61
2021/07/11 07:07:08;;;;;;;8.00;5.13;;;;;;;;;;4503457;28;20033;-61
2021/07/11 07:09:19;;;;;;;8.27;5.27;;;;;;;;;;4443326;28;20032;-60
2021/07/11 07:11:29;;;;;;;7.67;4.70;;;;;;;;;;4443438;28;20032;-61
2021/07/11 07:13:40;;;;;;;9.23;5.47;;;;;;;;;;4444013;28;20031;-61
2021/07/11 07:15:50;;;;;;;8.40;5.13;;;;;;;;;;4436334;28;20502;-61
2021/07/11 07:18:01;;;;;;;8.50;5.63;;;;;;;;;;4442493;28;20031;-61
2021/07/11 07:20:12;;;;;;;8.30;5.30;;;;;;;;;;4441170;28;20455;-61
2021/07/11 07:22:22;;;;;;;8.55;5.80;;;;;;;;;;4439888;28;20035;-61
2021/07/11 07:24:33;;;;;;;8.90;5.83;;;;;;;;;;4437666;28;20031;-60
2021/07/11 07:26:43;;;;;;;8.40;5.80;;;;;;;;;;4438737;28;20039;-61
2021/07/11 07:28:54;;;;;;;9.43;5.67;;;;;;;;;;4438170;28;20043;-61
2021/07/11 07:31:04;;;;;;;9.10;6.37;;;;;;;;;;4437520;28;20038;-61
2021/07/11 07:33:15;;;;;;;8.33;5.50;;;;;;;;;;4504676;28;20042;-61
2021/07/11 07:35:25;;;;;;;8.53;5.90;;;;;;;;;;4442956;28;20609;-61
2021/07/11 07:37:36;;;;;;;9.43;6.30;;;;;;;;;;4437938;28;20039;-61
2021/07/11 07:39:47;;;;;;;9.23;6.63;;;;;;;;;;4483783;28;20359;-60
2021/07/11 07:41:57;;;;;;;8.20;5.63;;;;;;;;;;4440653;28;20044;-61
2021/07/11 07:44:08;;;;;;;7.37;5.30;;;;;;;;;;4497611;28;20044;-60
2021/07/11 07:46:18;;;;;;;8.00;5.43;;;;;;;;;;4439797;28;20033;-61
2021/07/11 07:48:29;;;;;;;7.53;5.20;;;;;;;;;;4441214;28;20390;-61
2021/07/11 07:50:40;;;;;;;8.63;5.53;;;;;;;;;;4438345;28;20622;-61
2021/07/11 07:52:51;;;;;;;7.38;5.50;;;;;;;;;;4438131;28;20571;-61
2021/07/11 07:55:02;;;;;;;8.63;5.15;;;;;;;;;;4441209;28;20037;-61
2021/07/11 07:57:13;;;;;;;;;;;;;;;;;;4485238;28;20609;-61
2021/07/11 07:59:23;;;;;;;8.00;5.40;;;;;;;;;;4435194;28;20061;-61
2021/07/11 08:01:33;;;;;;;7.80;5.43;;;;;;;;;;4500945;28;20033;-61
2021/07/11 08:03:44;;;;;;;7.60;5.63;;;;;;;;;;4437140;28;20035;-61
2021/07/11 08:05:54;;;;;;;7.97;5.33;;;;;;;;;;4488755;28;20065;-61
2021/07/11 08:08:06;;;;;;;8.10;5.37;;;;;;;;;;4440042;28;20045;-61
2021/07/11 08:10:16;;;;;;;;;;;;;;;;;;4444472;28;20739;-61
2021/07/11 08:12:27;;;;;;;8.02;5.35;;;;;;;;;;4435958;28;19929;-61
2021/07/11 08:14:37;;;;;;;8.43;5.47;;;;;;;;;;4440576;28;20121;-61
2021/07/11 08:16:47;;;;;;;8.77;5.87;;;;;;;;;;4438385;28;20039;-61
2021/07/11 08:18:58;;;;;;;7.20;5.27;;;;;;;;;;4439629;28;20042;-61
2021/07/11 08:21:09;;;;;;;8.17;5.47;;;;;;;;;;4497657;28;20064;-61
2021/07/11 08:23:19;;;;;;;7.05;4.85;;;;;;;;;;4443651;28;20048;-61
2021/07/11 08:25:30;;;;;;;8.23;5.43;;;;;;;;;;4436409;28;20059;-60
2021/07/11 08:27:42;;;;;;;9.03;5.63;;;;;;;;;;4437315;28;20122;-61
2021/07/11 08:29:52;;;;;;;7.43;5.30;;;;;;;;;;4438357;28;20040;-61
2021/07/11 08:32:03;;;;;;;7.50;5.53;;;;;;;;;;4439599;28;20361;-61
2021/07/11 08:34:13;;;;;;;7.90;5.70;;;;;;;;;;4433266;28;20047;-60
2021/07/11 08:36:24;;;;;;;9.00;6.10;;;;;;;;;;4435461;28;20042;-61
2021/07/11 08:38:34;;;;;;;8.27;5.70;;;;;;;;;;4497227;28;20038;-60
2021/07/11 08:40:45;;;;;;;8.43;6.07;;;;;;;;;;4437906;28;33366;-61
2021/07/11 08:42:56;;;;;;;7.95;5.75;;;;;;;;;;4440249;28;20284;-61
2021/07/11 08:45:08;;;;;;;8.57;5.83;;;;;;;;;;4444070;28;20114;-61
2021/07/11 08:47:19;;;;;;;8.52;5.78;;;;;;;;;;4437769;28;20109;-61
2021/07/11 08:49:29;;;;;;;;;;;;;;;;;;4443154;28;20140;-61
2021/07/11 08:51:40;;;;;;;8.13;5.70;;;;;;;;;;4441474;28;20406;-61
2021/07/11 08:53:51;;;;;;;8.43;5.53;;;;;;;;;;4498329;28;20049;-61
2021/07/11 08:56:03;;;;;;;8.97;6.17;;;;;;;;;;4438953;28;20044;-60
2021/07/11 08:58:14;;;;;;;8.68;6.15;;;;;;;;;;4498614;28;20592;-60
2021/07/11 09:00:28;;;;;;;;;;;;;;;;;;4483060;28;20037;-61
2021/07/11 09:02:39;;;;;;;8.30;5.82;;;;;;;;;;4516125;28;19924;-61
2021/07/11 09:04:49;;;;;;;8.10;5.33;;;;;;;;;;4438862;28;20047;-60
2021/07/11 09:07:00;;;;;;;8.27;5.73;;;;;;;;;;4438587;28;20097;-61
2021/07/11 09:09:11;;;;;;;8.43;5.50;;;;;;;;;;4437743;28;20040;-61
2021/07/11 09:11:22;;;;;;;8.77;6.28;;;;;;;;;;4513782;28;20044;-61
2021/07/11 09:13:32;;;;;;;8.93;6.40;;;;;;;;;;4498137;28;20044;-61
2021/07/11 09:15:47;;;;;;;8.13;5.83;;;;;;;;;;4443513;28;20080;-61
2021/07/11 09:17:57;;;;;;;7.35;5.40;;;;;;;;;;4482913;28;20051;-61
2021/07/11 09:20:08;;;;;;;8.77;6.17;;;;;;;;;;4498707;28;20030;-61
2021/07/11 09:22:21;;;;;;;7.93;5.37;;;;;;;;;;4487722;28;20442;-61
2021/07/11 09:24:35;;;;;;;8.48;5.57;;;;;;;;;;4437127;28;20040;-61
2021/07/11 09:26:45;;;;;;;7.45;5.28;;;;;;;;;;4495448;28;20561;-61
2021/07/11 09:28:56;;;;;;;8.03;5.17;;;;;;;;;;4515218;28;20038;-61
2021/07/11 09:31:09;;;;;;;6.87;5.37;;;;;;;;;;4437781;28;20156;-61
2021/07/11 09:33:19;;;;;;;7.90;5.13;;;;;;;;;;4499484;28;20569;-61
2021/07/11 09:35:30;;;;;;;8.00;5.70;;;;;;;;;;4473736;28;20442;-61
2021/07/11 09:37:45;;;;;;;7.83;5.20;;;;;;;;;;4440344;28;20050;-61
2021/07/11 09:39:58;;;;;;;7.55;5.32;;;;;;;;;;4438271;28;20086;-61
2021/07/11 09:42:08;;;;;;;8.25;5.25;;;;;;;;;;4434381;28;20039;-60
2021/07/11 09:44:19;;;;;;;8.17;5.67;;;;;;;;;;4437936;28;20044;-61
2021/07/11 09:46:35;;;;;;;7.33;5.27;;;;;;;;;;4434865;28;20109;-61
2021/07/11 09:48:46;;;;;;;7.35;4.95;;;;;;;;;;4500318;28;20038;-61
2021/07/11 09:50:56;;;;;;;6.63;4.57;;;;;;;;;;4439118;28;20026;-60
2021/07/11 09:53:07;;;;;;;6.97;4.73;;;;;;;;;;4436983;28;20040;-60
2021/07/11 09:55:20;;;;;;;7.43;4.90;;;;;;;;;;4501288;28;20113;-61
2021/07/11 09:57:33;;;;;;;7.10;5.15;;;;;;;;;;4497783;28;20624;-61
2021/07/11 09:59:45;;;;;;;6.88;5.05;;;;;;;;;;4499477;28;20138;-60
2021/07/11 10:01:55;;;;;;;7.78;5.30;;;;;;;;;;4440445;28;20034;-63
2021/07/11 10:04:07;;;;;;;7.67;5.30;;;;;;;;;;4501887;28;20080;-61
2021/07/11 10:06:17;;;;;;;;;;;;;;;;;;4444604;28;20123;-61
2021/07/11 10:08:27;;;;;;;7.00;4.90;;;;;;;;;;4500897;28;20003;-61
2021/07/11 10:10:40;;;;;;;7.03;4.67;;;;;;;;;;4501647;28;20737;-61
2021/07/11 10:12:51;;;;;;;6.03;3.97;;;;;;;;;;4441992;28;20036;-61
2021/07/11 10:15:03;;;;;;;5.45;4.25;;;;;;;;;;4502228;28;21025;-61
2021/07/11 10:17:15;;;;;;;6.28;4.65;;;;;;;;;;4440831;28;20051;-61
2021/07/11 10:19:25;;;;;;;6.05;4.60;;;;;;;;;;4503638;28;20038;-60
2021/07/11 10:21:39;;;;;;;5.30;4.00;;;;;;;;;;4442972;28;20041;-61
2021/07/11 10:23:49;;;;;;;6.65;4.22;;;;;;;;;;4500636;28;20034;-61
2021/07/11 10:26:02;;;;;;;5.87;4.60;;;;;;;;;;4504876;28;25789;-61
2021/07/11 10:28:15;;;;;;;4.75;3.90;;;;;;;;;;4519370;28;20494;-61
2021/07/11 10:30:30;;;;;;;4.75;4.10;;;;;;;;;;4441695;28;20530;-61
2021/07/11 10:32:41;;;;;;;6.13;4.40;;;;;;;;;;4436907;28;20094;-61
2021/07/11 10:34:52;;;;;;;5.60;4.53;;;;;;;;;;4500268;28;21017;-60
2021/07/11 10:37:12;;;;;;;5.77;4.10;;;;;;;;;;4501848;28;20132;-61
2021/07/11 10:39:32;;;;;;;5.15;3.88;;;;;;;;;;4500782;28;20033;-61
2021/07/11 10:42:01;;;;;;;5.72;4.38;;;;;;;;;;4446587;28;20047;-61
2021/07/11 10:44:17;;;;;;;4.70;3.70;;;;;;;;;;4501611;28;20041;-61
2021/07/11 10:46:34;;;;;;;5.18;3.95;;;;;;;;;;4501561;28;20042;-61
2021/07/11 10:48:45;;;;;;;5.15;3.92;;;;;;;;;;4499554;28;20252;-60
2021/07/11 10:50:55;;;;;;;4.83;3.97;;;;;;;;;;4441085;28;20036;-61
2021/07/11 10:53:15;;;;;;;4.70;3.93;;;;;;;;;;4439095;28;20102;-61
2021/07/11 10:55:40;;;;;;;5.22;4.10;;;;;;;;;;4439036;28;21460;-60
2021/07/11 10:57:50;;;;;;;4.85;3.95;;;;;;;;;;4499398;28;20520;-61
2021/07/11 11:00:08;;;;;;;5.07;3.90;;;;;;;;;;4499940;28;20040;-61
2021/07/11 11:02:20;;;;;;;5.28;4.18;;;;;;;;;;4439114;28;20274;-61
2021/07/11 11:04:30;;;;;;;4.85;3.65;;;;;;;;;;4440160;28;20090;-61
2021/07/11 11:06:41;;;;;;;5.03;3.90;;;;;;;;;;4513504;28;20050;-61
2021/07/11 11:08:51;;;;;;;5.13;4.17;;;;;;;;;;4502606;28;20079;-61
2021/07/11 11:11:06;;;;;;;4.93;3.97;;;;;;;;;;4438158;28;20048;-61
2021/07/11 11:13:17;;;;;;;4.68;3.90;;;;;;;;;;4497550;28;21216;-61
2021/07/11 11:15:42;;;;;;;5.40;4.00;;;;;;;;;;4437773;28;20043;-61
2021/07/11 11:17:52;;;;;;;5.78;4.25;;;;;;;;;;4442145;28;20049;-61
2021/07/11 11:20:05;;;;;;;4.83;4.00;;;;;;;;;;4504034;28;20061;-61
2021/07/11 11:22:16;;;;;;;4.82;3.78;;;;;;;;;;4499763;28;20033;-61
2021/07/11 11:24:27;;;;;;;5.13;3.85;;;;;;;;;;4441069;28;20537;-61
2021/07/11 11:26:41;;;;;;;5.37;4.03;;;;;;;;;;4438052;28;22089;-61
2021/07/11 11:28:55;;;;;;;5.10;3.95;;;;;;;;;;4434895;28;20035;-60
2021/07/11 11:31:08;;;;;;;4.38;3.90;;;;;;;;;;4495926;28;20456;-61
2021/07/11 11:33:19;;;;;;;5.95;4.20;;;;;;;;;;4439895;28;20579;-60
2021/07/11 11:35:34;;;;;;;5.53;4.03;;;;;;;;;;4505434;28;20022;-61
2021/07/11 11:37:46;;;;;;;4.78;3.53;;;;;;;;;;4503852;28;20569;-60
2021/07/11 11:40:05;;;;;;;5.05;3.97;;;;;;;;;;4500201;28;20974;-60
2021/07/11 11:42:15;;;;;;;5.05;3.95;;;;;;;;;;4440275;28;20189;-61
2021/07/11 11:44:27;;;;;;;5.70;4.13;;;;;;;;;;4441659;28;20067;-60
2021/07/11 11:46:39;;;;;;;4.85;3.90;;;;;;;;;;4439016;28;20042;-60
2021/07/11 11:48:54;;;;;;;5.47;4.07;;;;;;;;;;4498301;28;20045;-60
2021/07/11 11:51:05;;;;;;;5.13;4.13;;;;;;;;;;4500854;28;20077;-60
2021/07/11 11:53:15;;;;;;;5.70;4.57;;;;;;;;;;4436561;28;20036;-60
2021/07/11 11:55:28;;;;;;;5.28;3.97;;;;;;;;;;4445950;28;20481;-60
2021/07/11 11:57:41;;;;;;;5.35;4.10;;;;;;;;;;4440866;28;20811;-60
2021/07/11 11:59:51;;;;;;;5.03;4.13;;;;;;;;;;4441472;28;20037;-60
2021/07/11 12:02:11;;;;;;;5.67;4.60;;;;;;;;;;4501064;28;22986;-60
2021/07/11 12:04:22;;;;;;;5.25;4.20;;;;;;;;;;4440986;28;20071;-61
2021/07/11 12:06:33;;;;;;;5.70;4.45;;;;;;;;;;4474514;28;20889;-60
2021/07/11 12:08:45;;;;;;;6.17;4.30;;;;;;;;;;4500945;28;20033;-60
2021/07/11 12:10:56;;;;;;;5.28;4.10;;;;;;;;;;4500225;28;20133;-60
2021/07/11 12:13:06;;;;;;;5.25;4.10;;;;;;;;;;4434477;28;20034;-61
2021/07/11 12:15:30;;;;;;;5.87;4.20;;;;;;;;;;4482112;28;20046;-60
2021/07/11 12:17:41;;;;;;;5.32;4.03;;;;;;;;;;4435766;28;20071;-61
2021/07/11 12:19:56;;;;;;;5.63;4.10;;;;;;;;;;4439612;28;20110;-60
2021/07/11 12:22:06;;;;;;;4.60;3.92;;;;;;;;;;4518085;28;20037;-60
2021/07/11 12:24:19;;;;;;;5.50;4.00;;;;;;;;;;4446161;28;20036;-61
2021/07/11 12:26:31;;;;;;;5.35;3.75;;;;;;;;;;4440408;28;20029;-61
2021/07/11 12:28:50;;;;;;;4.65;3.85;;;;;;;;;;4499734;28;20065;-60
2021/07/11 12:31:01;;;;;;;4.88;3.80;;;;;;;;;;4501640;28;20145;-60
2021/07/11 12:33:23;;;;;;;5.00;4.03;;;;;;;;;;4442691;28;21225;-60
2021/07/11 12:35:58;;;;;;;4.78;3.60;;;;;;;;;;4497459;28;20072;-60
2021/07/11 12:38:09;;;;;;;5.15;4.10;;;;;;;;;;4482186;28;20582;-60
2021/07/11 12:40:22;;;;;;;5.27;4.27;;;;;;;;;;4441447;28;20027;-60
2021/07/11 12:42:32;;;;;;;4.72;4.00;;;;;;;;;;4438785;28;20801;-61
2021/07/11 12:44:43;;;;;;;4.93;3.73;;;;;;;;;;4439728;28;20412;-60
2021/07/11 12:47:12;;;;;;;4.70;3.70;;;;;;;;;;4503513;28;20068;-60
2021/07/11 12:49:23;;;;;;;5.57;3.63;;;;;;;;;;4515301;28;20056;-61
2021/07/11 12:51:53;;;;;;;5.27;3.80;;;;;;;;;;4443048;28;22015;-60
2021/07/11 12:54:15;;;;;;;4.15;3.40;;;;;;;;;;4434460;28;21553;-60
2021/07/11 12:56:28;;;;;;;5.03;3.60;;;;;;;;;;4498634;28;20960;-61
2021/07/11 12:58:43;;;;;;;4.18;3.42;;;;;;;;;;4498083;28;20604;-61
2021/07/11 13:01:03;;;;;;;4.45;3.70;;;;;;;;;;4503719;28;20108;-60
2021/07/11 13:03:13;;;;;;;4.53;3.85;;;;;;;;;;4496174;28;20097;-60
2021/07/11 13:05:33;;;;;;;4.83;3.77;;;;;;;;;;4440372;28;20039;-60
2021/07/11 13:07:43;;;;;;;5.32;3.67;;;;;;;;;;4440738;28;20067;-60
2021/07/11 13:09:55;;;;;;;5.37;4.23;;;;;;;;;;4436992;28;20070;-61
2021/07/11 13:12:07;;;;;;;3.92;3.40;;;;;;;;;;4440255;28;20118;-60
2021/07/11 13:14:17;;;;;;;4.60;3.58;;;;;;;;;;4436441;28;20129;-61
2021/07/11 13:16:28;;;;;;;4.03;3.50;;;;;;;;;;4436346;28;24100;-60
2021/07/11 13:18:38;;;;;;;3.80;3.40;;;;;;;;;;4439770;28;20118;-60